createdAt,value
2023-05-19T00:01:21.832Z,3.15
2023-05-19T00:04:30.864Z,3.20
2023-05-19T00:07:38.905Z,3.20
2023-05-19T00:10:41.726Z,3.13
2023-05-19T00:13:49.744Z,3.10
2023-05-19T00:16:56.025Z,2.88
2023-05-19T00:20:01.558Z,3.50
2023-05-19T00:23:03.868Z,2.80
2023-05-19T00:26:06.677Z,3.05
2023-05-19T00:29:08.956Z,2.58
2023-05-19T00:32:11.580Z,3.10
2023-05-19T00:35:14.133Z,3.42
2023-05-19T00:38:19.497Z,2.70
2023-05-19T00:41:22.765Z,3.25
2023-05-19T00:44:25.298Z,2.88
2023-05-19T00:47:30.165Z,3.90
2023-05-19T00:50:35.473Z,2.95
2023-05-19T00:53:43.946Z,3.47
2023-05-19T00:56:46.368Z,3.42
2023-05-19T00:59:51.357Z,3.60
2023-05-19T01:02:57.144Z,3.42
2023-05-19T01:06:07.372Z,3.45
2023-05-19T01:09:12.345Z,4.35
2023-05-19T01:12:18.459Z,4.22
2023-05-19T01:15:21.024Z,3.97
2023-05-19T01:18:56.228Z,3.70
2023-05-19T01:22:14.922Z,4.30
2023-05-19T01:25:48.256Z,4.35
2023-05-19T01:29:28.088Z,3.97
2023-05-19T01:32:34.791Z,3.83
2023-05-19T01:35:45.882Z,4.40
2023-05-19T01:38:54.002Z,4.50
2023-05-19T01:41:58.205Z,4.20
2023-05-19T01:45:06.139Z,4.28
2023-05-19T01:48:12.082Z,3.95
2023-05-19T01:51:16.548Z,4.40
2023-05-19T01:54:19.034Z,4.00
2023-05-19T01:57:55.685Z,4.47
2023-05-19T02:01:16.993Z,4.28
2023-05-19T02:04:20.358Z,4.35
2023-05-19T02:07:35.657Z,4.72
2023-05-19T02:10:50.485Z,3.72
2023-05-19T02:13:58.161Z,4.15
2023-05-19T02:17:05.025Z,3.40
2023-05-19T02:20:12.295Z,4.15
2023-05-19T02:23:17.575Z,3.70
2023-05-19T02:26:19.876Z,4.22
2023-05-19T02:29:22.187Z,3.38
2023-05-19T02:32:28.218Z,4.32
2023-05-19T02:35:33.762Z,4.10
2023-05-19T02:38:36.365Z,4.25
2023-05-19T02:41:41.212Z,4.30
2023-05-19T02:44:48.660Z,4.13
2023-05-19T02:47:51.056Z,4.28
2023-05-19T02:50:59.399Z,4.68
2023-05-19T02:54:04.661Z,4.28
2023-05-19T02:57:07.142Z,5.32
2023-05-19T03:00:11.705Z,4.20
2023-05-19T03:03:14.989Z,5.07
2023-05-19T03:06:18.735Z,4.47
2023-05-19T03:09:23.438Z,4.75
2023-05-19T03:12:26.105Z,4.60
2023-05-19T03:15:34.368Z,4.22
2023-05-19T03:18:37.265Z,4.75
2023-05-19T03:21:39.578Z,4.50
2023-05-19T03:24:44.703Z,4.75
2023-05-19T03:27:51.816Z,4.65
2023-05-19T03:30:56.638Z,4.68
2023-05-19T03:34:03.545Z,4.20
2023-05-19T03:37:08.131Z,4.95
2023-05-19T03:40:15.567Z,4.65
2023-05-19T03:43:19.619Z,4.72
2023-05-19T03:46:30.534Z,4.30
2023-05-19T03:49:51.010Z,4.40
2023-05-19T03:53:16.520Z,4.90
2023-05-19T03:56:25.122Z,4.60
2023-05-19T03:59:29.788Z,4.65
2023-05-19T04:02:34.702Z,5.22
2023-05-19T04:05:37.064Z,5.10
2023-05-19T04:08:40.019Z,4.65
2023-05-19T04:11:43.116Z,4.93
2023-05-19T04:14:48.407Z,4.70
2023-05-19T04:17:50.779Z,5.05
2023-05-19T04:20:54.029Z,4.93
2023-05-19T04:23:56.430Z,4.63
2023-05-19T04:27:02.557Z,4.88
2023-05-19T04:30:06.932Z,4.88
2023-05-19T04:33:12.001Z,4.75
2023-05-19T04:36:14.562Z,4.65
2023-05-19T04:39:19.131Z,5.45
2023-05-19T04:42:21.873Z,4.68
2023-05-19T04:45:26.133Z,4.30
2023-05-19T04:48:31.416Z,5.07
2023-05-19T04:51:33.868Z,4.72
2023-05-19T04:54:38.654Z,5.00
2023-05-19T04:57:41.798Z,4.60
2023-05-19T05:03:49.420Z,4.07
2023-05-19T05:06:54.411Z,4.93
2023-05-19T05:10:00.884Z,4.40
2023-05-19T05:13:06.317Z,4.97
2023-05-19T05:16:09.488Z,5.22
2023-05-19T05:19:14.599Z,4.75
2023-05-19T05:22:17.614Z,4.70
2023-05-19T05:25:20.656Z,5.70
2023-05-19T05:28:26.733Z,5.88
2023-05-19T05:31:34.762Z,6.00
2023-05-19T05:34:42.032Z,6.20
2023-05-19T05:37:49.461Z,7.05
2023-05-19T05:40:56.703Z,6.00
2023-05-19T05:43:59.229Z,6.10
2023-05-19T05:47:03.947Z,6.55
2023-05-19T05:50:10.069Z,7.07
2023-05-19T05:53:21.481Z,6.50
2023-05-19T05:56:30.795Z,6.07
2023-05-19T05:59:34.375Z,6.53
2023-05-19T06:02:39.054Z,6.13
2023-05-19T06:05:41.413Z,6.53
2023-05-19T06:08:44.841Z,6.55
2023-05-19T06:11:52.170Z,6.75
2023-05-19T06:14:54.720Z,6.35
2023-05-19T06:18:20.022Z,6.88
2023-05-19T06:21:26.060Z,6.03
2023-05-19T06:24:33.881Z,6.32
2023-05-19T06:27:36.304Z,7.15
2023-05-19T06:30:41.477Z,7.43
2023-05-19T06:34:04.692Z,6.75
2023-05-19T06:37:07.151Z,6.75
2023-05-19T06:40:11.371Z,6.53
2023-05-19T06:43:20.512Z,7.22
2023-05-19T06:46:33.560Z,7.22
2023-05-19T06:49:36.121Z,8.05
2023-05-19T06:52:38.477Z,8.88
2023-05-19T06:55:54.405Z,7.85
2023-05-19T06:59:02.058Z,8.75
2023-05-19T07:02:13.111Z,8.82
2023-05-19T07:05:15.643Z,8.25
2023-05-19T07:08:21.909Z,8.02
2023-05-19T07:11:24.729Z,7.70
2023-05-19T07:14:27.376Z,7.80
2023-05-19T07:17:29.877Z,7.75
2023-05-19T07:20:34.782Z,7.72
2023-05-19T07:23:39.465Z,7.40
2023-05-19T07:26:44.268Z,7.72
2023-05-19T07:29:46.664Z,6.55
2023-05-19T07:32:49.102Z,6.50
2023-05-19T07:35:51.392Z,6.53
2023-05-19T07:38:53.797Z,6.35
2023-05-19T07:41:56.169Z,6.57
2023-05-19T07:45:01.226Z,5.45
2023-05-19T07:48:04.168Z,6.13
2023-05-19T07:51:10.077Z,6.05
2023-05-19T07:54:12.415Z,6.65
2023-05-19T07:57:14.725Z,7.00
2023-05-19T08:00:21.943Z,7.32
2023-05-19T08:06:30.115Z,5.70
2023-05-19T08:09:35.544Z,5.95
2023-05-19T08:12:37.863Z,6.35
2023-05-19T08:15:42.864Z,5.97
2023-05-19T08:21:48.398Z,6.00
2023-05-19T08:24:51.823Z,5.68
2023-05-19T08:27:56.374Z,5.50
2023-05-19T08:30:58.757Z,5.38
2023-05-19T08:34:01.040Z,5.90
2023-05-19T08:37:03.644Z,5.35
2023-05-19T08:40:07.236Z,5.47
2023-05-19T08:43:12.921Z,4.40
2023-05-19T08:46:16.995Z,3.75
2023-05-19T08:49:28.498Z,3.58
2023-05-19T08:52:53.136Z,3.45
2023-05-19T08:56:04.714Z,3.40
2023-05-19T08:59:10.590Z,3.72
2023-05-19T09:02:16.508Z,3.53
2023-05-19T09:05:19.636Z,4.03
2023-05-19T09:08:22.674Z,3.60
2023-05-19T09:11:29.527Z,3.40
2023-05-19T09:14:34.808Z,3.45
2023-05-19T09:17:37.257Z,4.13
2023-05-19T09:20:41.506Z,4.18
2023-05-19T09:23:49.778Z,4.20
2023-05-19T09:26:58.010Z,4.05
2023-05-19T09:30:10.987Z,4.18
2023-05-19T09:36:21.881Z,3.92
2023-05-19T09:39:29.009Z,4.03
2023-05-19T09:42:37.786Z,3.90
2023-05-19T09:45:40.081Z,4.25
2023-05-19T09:48:44.822Z,4.00
2023-05-19T09:51:52.901Z,3.83
2023-05-19T09:54:57.744Z,3.92
2023-05-19T09:58:01.226Z,4.20
2023-05-19T10:01:07.676Z,3.80
2023-05-19T10:04:10.306Z,4.28
2023-05-19T10:07:14.718Z,4.88
2023-05-19T10:10:20.030Z,3.97
2023-05-19T10:13:29.734Z,3.85
2023-05-19T10:16:32.753Z,3.88
2023-05-19T10:19:36.512Z,4.38
2023-05-19T10:22:39.646Z,5.07
2023-05-19T10:25:45.358Z,4.25
2023-05-19T10:28:50.961Z,3.80
2023-05-19T10:31:55.283Z,4.32
2023-05-19T10:35:07.514Z,4.22
2023-05-19T10:38:15.860Z,3.80
2023-05-19T10:41:40.042Z,3.70
2023-05-19T10:44:45.085Z,3.53
2023-05-19T10:47:47.453Z,4.03
2023-05-19T10:50:56.547Z,3.63
2023-05-19T10:54:02.822Z,3.60
2023-05-19T10:57:14.219Z,3.45
2023-05-19T11:00:31.823Z,3.40
2023-05-19T11:03:53.848Z,3.80
2023-05-19T11:06:57.824Z,3.80
2023-05-19T11:10:06.085Z,3.25
2023-05-19T11:13:23.113Z,3.67
2023-05-19T11:16:29.534Z,3.60
2023-05-19T11:19:37.137Z,3.72
2023-05-19T11:22:40.124Z,3.25
2023-05-19T11:25:44.738Z,3.38
2023-05-19T11:28:48.195Z,3.40
2023-05-19T11:31:53.111Z,3.92
2023-05-19T11:35:00.834Z,3.10
2023-05-19T11:38:07.235Z,3.08
2023-05-19T11:41:09.604Z,3.42
2023-05-19T11:44:12.200Z,3.22
2023-05-19T11:47:15.928Z,3.13
2023-05-19T11:50:22.997Z,3.42
2023-05-19T11:53:25.419Z,3.15
2023-05-19T11:56:30.008Z,3.47
2023-05-19T11:59:39.128Z,3.30
2023-05-19T12:02:44.084Z,3.13
2023-05-19T12:05:52.807Z,3.05
2023-05-19T12:08:55.530Z,3.00
2023-05-19T12:12:01.076Z,3.40
2023-05-19T12:15:04.111Z,3.20
2023-05-19T12:18:07.373Z,3.05
2023-05-19T12:21:12.180Z,3.15
2023-05-19T12:24:17.635Z,3.22
2023-05-19T12:27:20.842Z,4.10
2023-05-19T12:30:34.234Z,3.58
2023-05-19T12:33:39.586Z,3.40
2023-05-19T12:36:44.508Z,3.42
2023-05-19T12:39:50.790Z,4.63
2023-05-19T12:42:59.245Z,3.53
2023-05-19T12:46:13.550Z,3.92
2023-05-19T12:49:18.276Z,3.30
2023-05-19T12:52:24.094Z,3.50
2023-05-19T12:55:26.541Z,2.90
2023-05-19T12:58:28.898Z,2.67
2023-05-19T13:01:31.750Z,2.67
2023-05-19T13:04:36.650Z,2.92
2023-05-19T13:07:38.938Z,3.03
2023-05-19T13:10:44.634Z,3.00
2023-05-19T13:13:51.875Z,3.15
2023-05-19T13:16:54.267Z,3.00
2023-05-19T13:19:59.135Z,3.03
2023-05-19T13:23:06.677Z,3.13
2023-05-19T13:26:13.680Z,2.92
2023-05-19T13:29:16.030Z,3.08
2023-05-19T13:32:20.600Z,2.55
2023-05-19T13:35:23.051Z,3.28
2023-05-19T13:38:25.393Z,2.83
2023-05-19T13:41:30.203Z,2.78
2023-05-19T13:44:32.890Z,2.90
2023-05-19T13:47:38.804Z,3.05
2023-05-19T13:50:41.100Z,2.92
2023-05-19T13:53:43.496Z,2.95
2023-05-19T13:56:48.850Z,2.92
2023-05-19T14:00:02.018Z,3.03
2023-05-19T14:03:16.326Z,2.80
2023-05-19T14:06:20.995Z,3.35
2023-05-19T14:09:26.955Z,2.83
2023-05-19T14:12:41.384Z,2.60
2023-05-19T14:15:49.752Z,2.88
2023-05-19T14:18:52.268Z,2.85
2023-05-19T14:21:56.803Z,2.90
2023-05-19T14:25:00.493Z,2.60
2023-05-19T14:28:05.148Z,2.95
2023-05-19T14:31:14.821Z,2.67
2023-05-19T14:34:21.206Z,2.92
2023-05-19T14:37:28.961Z,2.63
2023-05-19T14:40:31.644Z,2.75
2023-05-19T14:43:34.104Z,2.65
2023-05-19T14:46:38.903Z,3.20
2023-05-19T14:49:41.244Z,2.70
2023-05-19T14:52:46.022Z,3.38
2023-05-19T14:55:49.579Z,2.70
2023-05-19T14:58:55.664Z,2.90
2023-05-19T15:02:02.750Z,2.90
2023-05-19T15:05:08.093Z,2.83
2023-05-19T15:08:10.463Z,2.88
2023-05-19T15:11:12.891Z,2.92
2023-05-19T15:14:18.686Z,2.80
2023-05-19T15:17:23.378Z,2.95
2023-05-19T15:20:27.448Z,2.45
2023-05-19T15:23:36.437Z,3.10
2023-05-19T15:26:41.149Z,3.00
2023-05-19T15:29:43.690Z,2.92
2023-05-19T15:32:46.003Z,2.97
2023-05-19T15:35:51.694Z,3.13
2023-05-19T15:38:54.094Z,3.40
2023-05-19T15:41:56.440Z,3.25
2023-05-19T15:45:05.391Z,2.75
2023-05-19T15:48:08.189Z,2.92
2023-05-19T15:51:13.056Z,3.22
2023-05-19T15:54:15.465Z,3.35
2023-05-19T15:57:20.926Z,3.03
2023-05-19T16:00:25.475Z,3.50
2023-05-19T16:03:27.877Z,3.90
2023-05-19T16:06:34.951Z,3.42
2023-05-19T16:09:37.286Z,2.67
2023-05-19T16:12:43.971Z,2.80
2023-05-19T16:15:46.297Z,3.47
2023-05-19T16:18:48.684Z,2.90
2023-05-19T16:21:53.391Z,3.35
2023-05-19T16:24:55.788Z,3.05
2023-05-19T16:27:58.155Z,3.67
2023-05-19T16:31:02.914Z,3.13
2023-05-19T16:34:05.215Z,3.05
2023-05-19T16:37:09.943Z,2.90
2023-05-19T16:40:15.082Z,3.30
2023-05-19T16:43:19.691Z,2.55
2023-05-19T16:46:24.650Z,2.60
2023-05-19T16:49:27.016Z,3.10
2023-05-19T16:52:29.355Z,4.40
2023-05-19T16:55:32.759Z,3.03
2023-05-19T16:58:35.507Z,2.92
2023-05-19T17:01:40.130Z,2.80
2023-05-19T17:04:44.959Z,2.92
2023-05-19T17:07:49.724Z,3.08
2023-05-19T17:10:52.037Z,2.80
2023-05-19T17:13:54.417Z,3.03
2023-05-19T17:16:59.279Z,2.97
2023-05-19T17:20:02.113Z,2.75
2023-05-19T17:23:06.995Z,2.70
2023-05-19T17:26:14.452Z,2.83
2023-05-19T17:32:25.881Z,3.00
2023-05-19T17:35:28.665Z,2.80
2023-05-19T17:38:40.115Z,3.22
2023-05-19T17:41:45.225Z,3.20
2023-05-19T17:44:49.704Z,3.53
2023-05-19T17:47:54.188Z,2.63
2023-05-19T17:50:56.899Z,3.42
2023-05-19T17:53:59.829Z,2.92
2023-05-19T17:57:12.950Z,3.15
2023-05-19T18:00:17.663Z,3.53
2023-05-19T18:03:23.595Z,3.30
2023-05-19T18:06:28.172Z,3.30
2023-05-19T18:09:36.186Z,3.30
2023-05-19T18:12:38.821Z,3.28
2023-05-19T18:15:43.457Z,3.40
2023-05-19T18:18:50.645Z,2.53
2023-05-19T18:21:53.237Z,3.00
2023-05-19T18:24:58.106Z,3.58
2023-05-19T18:28:05.762Z,3.22
2023-05-19T18:31:17.575Z,3.17
2023-05-19T18:34:25.577Z,3.55
2023-05-19T18:37:28.634Z,3.75
2023-05-19T18:40:33.444Z,4.45
2023-05-19T18:43:36.150Z,4.47
2023-05-19T18:46:38.403Z,4.03
2023-05-19T18:49:43.211Z,4.53
2023-05-19T18:52:50.376Z,4.30
2023-05-19T18:55:53.363Z,4.80
2023-05-19T18:58:55.674Z,4.85
2023-05-19T19:02:00.744Z,4.80
2023-05-19T19:05:04.092Z,5.00
2023-05-19T19:08:11.469Z,5.03
2023-05-19T19:11:16.243Z,4.60
2023-05-19T19:14:19.410Z,4.88
2023-05-19T19:17:21.815Z,4.72
2023-05-19T19:20:24.267Z,5.00
2023-05-19T19:23:27.544Z,5.45
2023-05-19T19:26:34.634Z,5.25
2023-05-19T19:29:41.470Z,4.57
2023-05-19T19:32:43.902Z,4.78
2023-05-19T19:35:49.122Z,5.28
2023-05-19T19:38:51.883Z,5.13
2023-05-19T19:41:57.275Z,5.63
2023-05-19T19:45:02.227Z,5.03
2023-05-19T19:48:09.469Z,5.60
2023-05-19T19:51:16.790Z,5.13
2023-05-19T19:54:19.092Z,4.63
2023-05-19T19:57:21.455Z,5.57
2023-05-19T20:00:26.197Z,4.97
2023-05-19T20:03:29.768Z,5.40
2023-05-19T20:06:33.280Z,5.95
2023-05-19T20:09:35.623Z,5.30
2023-05-19T20:12:38.282Z,4.97
2023-05-19T20:15:43.905Z,5.05
2023-05-19T20:18:48.480Z,5.43
2023-05-19T20:21:53.673Z,5.65
2023-05-19T20:24:55.922Z,5.30
2023-05-19T20:28:02.080Z,4.93
2023-05-19T20:31:05.191Z,4.93
2023-05-19T20:34:07.494Z,5.68
2023-05-19T20:37:13.808Z,5.90
2023-05-19T20:40:18.719Z,5.35
2023-05-19T20:43:21.315Z,5.07
2023-05-19T20:46:28.613Z,5.68
2023-05-19T20:49:31.224Z,6.25
2023-05-19T20:52:36.037Z,5.93
2023-05-19T20:55:42.254Z,5.47
2023-05-19T20:58:44.506Z,5.55
2023-05-19T21:01:47.453Z,6.18
2023-05-19T21:04:52.403Z,6.22
2023-05-19T21:07:54.784Z,5.57
2023-05-19T21:10:59.446Z,5.22
2023-05-19T21:14:04.291Z,5.97
2023-05-19T21:17:07.446Z,5.97
2023-05-19T21:20:13.381Z,5.18
2023-05-19T21:23:15.771Z,5.93
2023-05-19T21:26:18.175Z,5.43
2023-05-19T21:29:23.080Z,5.43
2023-05-19T21:35:30.560Z,5.30
2023-05-19T21:38:33.013Z,6.07
2023-05-19T21:41:35.569Z,6.32
2023-05-19T21:44:40.179Z,6.18
2023-05-19T21:47:42.530Z,5.78
2023-05-19T21:50:52.592Z,5.20
2023-05-19T21:53:54.932Z,5.05
2023-05-19T21:56:57.360Z,5.18
2023-05-19T21:59:59.734Z,5.88
2023-05-19T22:03:02.445Z,5.03
2023-05-19T22:06:06.528Z,4.65
2023-05-19T22:09:11.631Z,4.47
2023-05-19T22:12:16.408Z,5.47
2023-05-19T22:15:21.063Z,5.20
2023-05-19T22:18:25.813Z,5.20
2023-05-19T22:21:28.153Z,6.05
2023-05-19T22:24:35.536Z,5.78
2023-05-19T22:27:38.186Z,4.75
2023-05-19T22:30:42.179Z,4.70
2023-05-19T22:33:44.880Z,4.72
2023-05-19T22:36:47.343Z,4.85
2023-05-19T22:39:51.961Z,4.90
2023-05-19T22:42:56.515Z,5.40
2023-05-19T22:45:58.873Z,5.10
2023-05-19T22:49:01.216Z,4.22
2023-05-19T22:52:06.203Z,5.38
2023-05-19T22:55:11.076Z,5.40
2023-05-19T22:58:13.626Z,4.88
2023-05-19T23:01:18.849Z,5.07
2023-05-19T23:04:21.675Z,5.60
2023-05-19T23:07:24.021Z,5.53
2023-05-19T23:10:26.374Z,5.30
2023-05-19T23:13:31.686Z,5.10
2023-05-19T23:16:34.031Z,5.50
2023-05-19T23:19:39.462Z,5.70
2023-05-19T23:22:41.817Z,6.03
2023-05-19T23:25:44.106Z,5.45
2023-05-19T23:28:48.809Z,6.28
2023-05-19T23:31:51.450Z,5.85
2023-05-19T23:34:56.107Z,6.35
2023-05-19T23:38:03.173Z,6.25
2023-05-19T23:41:05.838Z,5.43
2023-05-19T23:44:08.623Z,5.63
2023-05-19T23:47:11.001Z,6.35
2023-05-19T23:50:13.329Z,6.07
2023-05-19T23:53:18.006Z,5.75
2023-05-19T23:56:22.606Z,6.20
2023-05-19T23:59:29.870Z,5.75
